Time;durP1;ratioP1;P1;durP2;ratioP2;P2;SDS_P1;SDS_P2;PMS_P1;PMS_P2;Temp;Humidity;BMP_temperature;BMP_pressure;BME280_temperature;BME280_humidity;BME280_pressure;Samples;Min_cycle;Max_cycle;Signal;HPM_P1;HPM_P2
2024/05/03 00:01:03;;;;;;;1.13;0.10;;;13.00;95.70;;;;;;5372200;26;20247;-77
2024/05/03 00:03:32;;;;;;;0.63;0.20;;;13.00;95.60;;;;;;5375673;26;20242;-77
2024/05/03 00:06:03;;;;;;;0.30;0.30;;;13.00;95.80;;;;;;5366972;26;20300;-77
2024/05/03 00:08:32;;;;;;;0.20;0.20;;;13.00;95.60;;;;;;5371162;26;20262;-77
2024/05/03 00:11:01;;;;;;;0.10;0.10;;;13.00;95.50;;;;;;5358683;26;20240;-77
2024/05/03 00:13:29;;;;;;;0.27;0.27;;;12.90;96.00;;;;;;5365089;26;20382;-77
2024/05/03 00:15:59;;;;;;;0.13;0.13;;;12.90;95.90;;;;;;5368221;26;20254;-77
2024/05/03 00:18:27;;;;;;;0.20;0.20;;;12.90;96.00;;;;;;5369609;26;20786;-78
2024/05/03 00:20:56;;;;;;;0.20;0.20;;;12.80;96.30;;;;;;5363712;26;20247;-79
2024/05/03 00:23:27;;;;;;;0.23;0.23;;;12.80;96.20;;;;;;5363028;26;20301;-79
2024/05/03 00:25:56;;;;;;;0.20;0.20;;;12.80;96.30;;;;;;5365094;26;20255;-79
2024/05/03 00:28:25;;;;;;;0.73;0.50;;;12.80;96.20;;;;;;5363848;26;20330;-79
2024/05/03 00:30:53;;;;;;;0.20;0.20;;;12.80;96.30;;;;;;5356255;26;20294;-79
2024/05/03 00:33:22;;;;;;;0.40;0.40;;;12.80;96.70;;;;;;5361295;26;20255;-78
2024/05/03 00:35:51;;;;;;;0.27;0.27;;;12.70;96.60;;;;;;5359060;26;20369;-77
2024/05/03 00:38:19;;;;;;;0.40;0.40;;;12.80;96.40;;;;;;5368518;26;20307;-77
2024/05/03 00:40:51;;;;;;;0.93;0.20;;;12.70;96.40;;;;;;5364939;26;20292;-77
2024/05/03 00:43:19;;;;;;;0.37;0.27;;;12.60;96.80;;;;;;5371096;26;20433;-77
2024/05/03 00:45:48;;;;;;;0.70;0.40;;;12.50;97.10;;;;;;5372222;26;20250;-79
2024/05/03 00:48:17;;;;;;;0.30;0.30;;;12.40;97.50;;;;;;5368896;26;20287;-78
2024/05/03 00:50:46;;;;;;;0.57;0.30;;;12.50;97.40;;;;;;5373028;26;20288;-78
2024/05/03 00:53:16;;;;;;;0.53;0.30;;;12.60;97.40;;;;;;5370509;26;20713;-78
2024/05/03 00:55:45;;;;;;;0.20;0.20;;;12.60;97.30;;;;;;5362217;26;20251;-78
2024/05/03 00:58:16;;;;;;;0.20;0.20;;;12.60;97.50;;;;;;5361245;26;20613;-77
2024/05/03 01:00:46;;;;;;;0.90;0.20;;;12.70;97.20;;;;;;5365835;26;20292;-78
2024/05/03 01:03:14;;;;;;;0.87;0.20;;;12.80;97.20;;;;;;5372520;26;20381;-78
2024/05/03 01:05:43;;;;;;;0.73;0.20;;;12.70;97.00;;;;;;5374050;26;20282;-77
2024/05/03 01:08:12;;;;;;;0.20;0.20;;;12.60;97.30;;;;;;5367994;26;20372;-77
2024/05/03 01:10:41;;;;;;;0.30;0.30;;;12.60;97.60;;;;;;5372386;26;20255;-77
2024/05/03 01:13:10;;;;;;;0.30;0.30;;;12.70;97.70;;;;;;5372605;26;20630;-78
2024/05/03 01:15:42;;;;;;;1.03;0.40;;;12.60;97.20;;;;;;5378030;26;20614;-77
2024/05/03 01:18:14;;;;;;;0.30;0.30;;;12.70;97.20;;;;;;5374602;26;20407;-77
2024/05/03 01:20:42;;;;;;;0.20;0.20;;;12.60;97.40;;;;;;5367410;26;20311;-77
2024/05/03 01:23:15;;;;;;;0.30;0.30;;;12.60;97.40;;;;;;5377031;26;20322;-77
2024/05/03 01:25:47;;;;;;;0.50;0.30;;;12.60;97.50;;;;;;5372120;26;20250;-77
2024/05/03 01:28:16;;;;;;;0.23;0.23;;;12.70;97.90;;;;;;5372614;26;20291;-77
2024/05/03 01:30:45;;;;;;;1.87;0.57;;;12.70;97.70;;;;;;5356320;26;20267;-77
2024/05/03 01:33:14;;;;;;;0.40;0.40;;;12.70;97.40;;;;;;5367492;26;20255;-78
2024/05/03 01:35:43;;;;;;;0.30;0.30;;;12.70;97.40;;;;;;5367917;26;20250;-78
2024/05/03 01:38:12;;;;;;;0.40;0.40;;;12.60;97.60;;;;;;5371493;26;20297;-79
2024/05/03 01:40:41;;;;;;;0.40;0.40;;;12.70;97.50;;;;;;5371413;26;20246;-79
2024/05/03 01:43:13;;;;;;;0.30;0.30;;;12.60;97.40;;;;;;5374484;26;20281;-79
2024/05/03 01:45:41;;;;;;;0.33;0.20;;;12.70;97.70;;;;;;5362093;26;20286;-79
2024/05/03 01:48:10;;;;;;;0.87;0.30;;;12.70;97.70;;;;;;5376764;26;20289;-78
2024/05/03 01:50:39;;;;;;;1.23;0.30;;;12.70;97.70;;;;;;5363640;26;20326;-78
2024/05/03 01:53:10;;;;;;;0.63;0.50;;;12.70;97.30;;;;;;5365375;26;20391;-78
2024/05/03 01:55:39;;;;;;;0.20;0.20;;;12.60;97.10;;;;;;5361628;26;20772;-77
2024/05/03 01:58:07;;;;;;;1.40;0.40;;;12.50;97.20;;;;;;5367288;26;20305;-78
2024/05/03 02:00:40;;;;;;;0.93;0.30;;;12.60;97.10;;;;;;5372613;26;20362;-79
2024/05/03 02:03:09;;;;;;;0.80;0.33;;;12.60;97.40;;;;;;5359204;26;20756;-78
2024/05/03 02:05:37;;;;;;;0.30;0.30;;;12.70;97.20;;;;;;5371485;26;20726;-77
2024/05/03 02:08:07;;;;;;;0.23;0.23;;;12.50;97.70;;;;;;5361900;26;20330;-77
2024/05/03 02:10:35;;;;;;;0.20;0.20;;;12.40;97.60;;;;;;5365709;26;20290;-79
2024/05/03 02:13:04;;;;;;;3.10;0.30;;;12.50;97.30;;;;;;5358732;26;20282;-79
2024/05/03 02:15:33;;;;;;;0.40;0.30;;;12.50;97.20;;;;;;5373764;26;20305;-78
2024/05/03 02:18:04;;;;;;;0.30;0.30;;;12.50;97.50;;;;;;5366305;26;20248;-79
2024/05/03 02:20:33;;;;;;;0.20;0.20;;;12.50;97.90;;;;;;5360785;26;20240;-78
2024/05/03 02:23:01;;;;;;;0.20;0.20;;;12.40;97.60;;;;;;5363520;26;20730;-77
2024/05/03 02:25:30;;;;;;;0.97;0.20;;;12.40;97.60;;;;;;5374463;26;20270;-78
2024/05/03 02:27:59;;;;;;;0.40;0.33;;;12.40;97.80;;;;;;5373241;26;20258;-78
2024/05/03 02:30:27;;;;;;;0.30;0.30;;;12.40;97.60;;;;;;5364966;26;20339;-78
2024/05/03 02:32:56;;;;;;;1.20;0.30;;;12.30;97.60;;;;;;5358548;26;20240;-78
2024/05/03 02:35:27;;;;;;;0.60;0.30;;;12.30;97.80;;;;;;5352754;26;20264;-77
2024/05/03 02:37:56;;;;;;;0.30;0.30;;;12.30;97.90;;;;;;5360840;26;20250;-77
2024/05/03 02:40:25;;;;;;;0.20;0.20;;;12.30;97.60;;;;;;5374377;26;20255;-77
2024/05/03 02:42:53;;;;;;;0.20;0.20;;;12.30;98.00;;;;;;5366609;26;20306;-77
2024/05/03 02:45:22;;;;;;;0.20;0.20;;;12.40;97.40;;;;;;5363048;26;20344;-77
2024/05/03 02:47:51;;;;;;;0.20;0.20;;;12.40;97.50;;;;;;5365195;26;20248;-78
2024/05/03 02:50:19;;;;;;;0.20;0.20;;;12.40;96.90;;;;;;5372034;26;20310;-77
2024/05/03 02:52:51;;;;;;;0.27;0.27;;;12.30;97.00;;;;;;5365897;26;20242;-77
2024/05/03 02:55:19;;;;;;;0.20;0.20;;;12.30;97.70;;;;;;5363486;26;20302;-77
2024/05/03 02:57:48;;;;;;;0.30;0.30;;;12.20;97.40;;;;;;5364066;26;20244;-76
2024/05/03 03:00:17;;;;;;;0.20;0.20;;;12.30;97.40;;;;;;5369969;26;20690;-77
2024/05/03 03:02:47;;;;;;;0.20;0.20;;;12.30;97.40;;;;;;5373951;26;20242;-77
2024/05/03 03:05:16;;;;;;;0.20;0.20;;;12.30;97.50;;;;;;5369215;26;20254;-76
2024/05/03 03:07:44;;;;;;;0.50;0.30;;;12.30;97.30;;;;;;5367713;26;20238;-81
2024/05/03 03:10:16;;;;;;;0.20;0.20;;;12.20;97.50;;;;;;5378818;26;20774;-78
2024/05/03 03:12:44;;;;;;;0.20;0.20;;;12.20;97.40;;;;;;5363610;26;20282;-78
2024/05/03 03:15:13;;;;;;;0.30;0.30;;;12.20;97.40;;;;;;5367028;26;20785;-78
2024/05/03 03:17:42;;;;;;;0.30;0.30;;;12.30;97.70;;;;;;5374830;26;20246;-77
2024/05/03 03:20:11;;;;;;;0.20;0.20;;;12.20;97.80;;;;;;5368893;26;20254;-77
2024/05/03 03:22:41;;;;;;;0.20;0.20;;;12.20;97.80;;;;;;5372399;26;20627;-77
2024/05/03 03:25:10;;;;;;;0.20;0.20;;;12.30;97.90;;;;;;5368242;26;20358;-77
2024/05/03 03:27:41;;;;;;;0.23;0.23;;;12.40;97.50;;;;;;5361913;26;20255;-77
2024/05/03 03:30:13;;;;;;;0.20;0.20;;;12.40;97.50;;;;;;5353168;26;20243;-78
2024/05/03 03:32:42;;;;;;;0.43;0.20;;;12.40;97.80;;;;;;5357663;26;20282;-77
2024/05/03 03:35:11;;;;;;;0.30;0.30;;;12.30;97.60;;;;;;5366565;26;20629;-76
2024/05/03 03:37:39;;;;;;;0.20;0.20;;;12.30;98.00;;;;;;5363103;26;20695;-77
2024/05/03 03:40:09;;;;;;;0.20;0.20;;;12.30;98.00;;;;;;5361398;26;20258;-77
2024/05/03 03:42:41;;;;;;;0.30;0.30;;;12.40;97.70;;;;;;5374031;26;20294;-76
2024/05/03 03:45:10;;;;;;;0.20;0.20;;;12.30;97.80;;;;;;5366352;26;20713;-77
2024/05/03 03:47:41;;;;;;;0.47;0.30;;;12.30;97.70;;;;;;5367836;26;20884;-77
2024/05/03 03:50:10;;;;;;;0.57;0.53;;;12.30;97.90;;;;;;5368474;26;20246;-77
2024/05/03 03:52:40;;;;;;;0.30;0.30;;;12.40;97.90;;;;;;5367951;26;20251;-77
2024/05/03 03:55:09;;;;;;;0.67;0.30;;;12.20;98.30;;;;;;5371913;26;20318;-77
2024/05/03 03:57:37;;;;;;;0.30;0.30;;;12.20;98.30;;;;;;5363181;26;20349;-78
2024/05/03 04:00:10;;;;;;;0.30;0.30;;;12.20;98.40;;;;;;5375097;26;20284;-78
2024/05/03 04:02:38;;;;;;;0.27;0.20;;;12.20;98.70;;;;;;5372710;26;20316;-78
2024/05/03 04:05:08;;;;;;;0.87;0.30;;;12.10;98.60;;;;;;5378634;26;20246;-77
2024/05/03 04:07:38;;;;;;;0.30;0.30;;;12.10;98.90;;;;;;5376162;26;20293;-77
2024/05/03 04:10:07;;;;;;;0.27;0.27;;;12.10;98.80;;;;;;5370517;26;20828;-77
2024/05/03 04:12:36;;;;;;;0.70;0.20;;;12.20;98.70;;;;;;5375762;26;20250;-77
2024/05/03 04:15:06;;;;;;;0.37;0.30;;;12.20;99.10;;;;;;5364459;26;20256;-77
2024/05/03 04:17:37;;;;;;;0.30;0.30;;;12.10;99.00;;;;;;5379669;26;20842;-78
2024/05/03 04:20:06;;;;;;;0.33;0.33;;;12.10;98.70;;;;;;5364002;26;21048;-78
2024/05/03 04:22:35;;;;;;;1.53;0.30;;;12.00;98.70;;;;;;5375188;26;20243;-77
2024/05/03 04:25:04;;;;;;;0.20;0.20;;;11.90;99.10;;;;;;5363241;26;20366;-77
2024/05/03 04:27:33;;;;;;;1.13;0.40;;;11.90;99.40;;;;;;5364394;26;20333;-77
2024/05/03 04:30:02;;;;;;;0.20;0.20;;;12.00;99.50;;;;;;5351558;26;20247;-76
2024/05/03 04:32:36;;;;;;;0.20;0.20;;;11.90;99.50;;;;;;5361204;26;20246;-77
2024/05/03 04:35:05;;;;;;;0.30;0.30;;;12.00;99.40;;;;;;5364323;26;20258;-77
2024/05/03 04:37:34;;;;;;;0.37;0.10;;;12.10;99.40;;;;;;5354983;26;20355;-78
2024/05/03 04:40:03;;;;;;;1.30;0.20;;;12.20;99.50;;;;;;5369016;26;20309;-78
2024/05/03 04:42:31;;;;;;;0.27;0.27;;;12.20;99.10;;;;;;5372124;26;20255;-77
2024/05/03 04:45:00;;;;;;;0.20;0.20;;;12.20;99.00;;;;;;5360909;26;20329;-80
2024/05/03 04:47:29;;;;;;;0.20;0.20;;;12.10;99.70;;;;;;5353835;26;20243;-76
2024/05/03 04:50:00;;;;;;;0.27;0.27;;;12.00;99.50;;;;;;5363505;26;20348;-75
2024/05/03 04:52:29;;;;;;;0.40;0.40;;;11.90;99.50;;;;;;5369953;26;20255;-76
2024/05/03 04:54:57;;;;;;;0.30;0.30;;;12.00;99.60;;;;;;5367064;26;20243;-76
2024/05/03 04:57:26;;;;;;;0.20;0.20;;;11.90;99.60;;;;;;5365632;26;20283;-76
2024/05/03 04:59:55;;;;;;;0.30;0.30;;;12.00;99.90;;;;;;5371560;26;20314;-77
2024/05/03 05:02:23;;;;;;;1.00;0.33;;;12.00;99.80;;;;;;5374870;26;20240;-76
2024/05/03 05:04:52;;;;;;;0.20;0.20;;;11.90;99.90;;;;;;5362350;26;20354;-76
2024/05/03 05:07:25;;;;;;;0.77;0.40;;;11.90;99.70;;;;;;5368828;26;20255;-77
2024/05/03 05:09:53;;;;;;;0.20;0.20;;;11.90;99.90;;;;;;5375310;26;20586;-77
2024/05/03 05:12:22;;;;;;;0.93;0.30;;;11.90;99.90;;;;;;5381485;26;20298;-76
2024/05/03 05:14:51;;;;;;;0.30;0.30;;;11.90;99.90;;;;;;5360928;26;20303;-77
2024/05/03 05:17:20;;;;;;;0.30;0.20;;;12.00;99.90;;;;;;5367026;26;20282;-78
2024/05/03 05:19:52;;;;;;;0.40;0.40;;;12.00;99.90;;;;;;5374947;26;20867;-80
2024/05/03 05:22:21;;;;;;;0.27;0.27;;;12.10;99.90;;;;;;5378839;26;20616;-77
2024/05/03 05:24:53;;;;;;;0.20;0.20;;;12.00;99.80;;;;;;5375191;26;20258;-77
2024/05/03 05:27:22;;;;;;;0.13;0.13;;;12.00;99.90;;;;;;5375360;26;20238;-78
2024/05/03 05:29:54;;;;;;;0.40;0.40;;;12.10;99.90;;;;;;5378432;26;20247;-77
2024/05/03 05:32:23;;;;;;;0.27;0.27;;;12.10;99.90;;;;;;5358534;26;20413;-77
2024/05/03 05:34:54;;;;;;;0.57;0.30;;;12.10;99.80;;;;;;5364186;26;20324;-77
2024/05/03 05:37:25;;;;;;;0.47;0.30;;;12.00;99.90;;;;;;5375792;26;21023;-78
2024/05/03 05:39:54;;;;;;;0.20;0.20;;;11.90;99.90;;;;;;5372712;26;20243;-77
2024/05/03 05:42:28;;;;;;;0.63;0.17;;;11.90;99.90;;;;;;5372369;26;20376;-76
2024/05/03 05:44:56;;;;;;;0.20;0.20;;;11.90;99.90;;;;;;5368843;26;20609;-76
2024/05/03 05:47:25;;;;;;;0.20;0.20;;;11.90;99.90;;;;;;5378828;26;20276;-77
2024/05/03 05:49:54;;;;;;;0.20;0.20;;;11.90;99.90;;;;;;5369082;26;20247;-78
2024/05/03 05:52:25;;;;;;;1.03;0.40;;;12.10;99.90;;;;;;5358482;26;20348;-77
2024/05/03 05:54:54;;;;;;;0.30;0.30;;;12.20;99.90;;;;;;5367220;26;20353;-78
2024/05/03 05:57:20;;;;;;;0.50;0.40;;;12.20;99.90;;;;;;5361625;26;20282;-78
2024/05/03 05:59:48;;;;;;;0.30;0.30;;;12.20;99.90;;;;;;5356484;26;20251;-76
2024/05/03 06:02:17;;;;;;;1.03;0.30;;;12.30;99.90;;;;;;5373000;26;20250;-77
2024/05/03 06:04:46;;;;;;;0.73;0.30;;;12.30;99.90;;;;;;5367894;26;20330;-78
2024/05/03 06:07:14;;;;;;;0.30;0.30;;;12.30;99.60;;;;;;5368158;26;20254;-76
2024/05/03 06:09:46;;;;;;;1.80;0.30;;;12.40;99.80;;;;;;5370343;26;20644;-76
2024/05/03 06:12:15;;;;;;;0.47;0.30;;;12.40;99.50;;;;;;5368830;26;20234;-76
2024/05/03 06:14:43;;;;;;;1.73;0.30;;;12.40;99.40;;;;;;5370821;26;20247;-78
2024/05/03 06:17:13;;;;;;;0.20;0.20;;;12.50;99.70;;;;;;5372108;26;20364;-76
2024/05/03 06:19:42;;;;;;;1.10;0.30;;;12.50;98.90;;;;;;5370569;26;20290;-76
2024/05/03 06:22:11;;;;;;;0.30;0.30;;;12.40;99.40;;;;;;5377647;26;20243;-76
2024/05/03 06:24:39;;;;;;;0.80;0.20;;;12.40;99.10;;;;;;5375463;26;20242;-77
2024/05/03 06:27:11;;;;;;;0.30;0.30;;;12.50;99.90;;;;;;5377953;26;20250;-77
2024/05/03 06:29:41;;;;;;;0.30;0.30;;;12.50;99.10;;;;;;5369541;26;20248;-77
2024/05/03 06:32:10;;;;;;;0.30;0.30;;;12.60;99.30;;;;;;5349805;26;20254;-77
2024/05/03 06:34:39;;;;;;;0.27;0.27;;;12.50;99.00;;;;;;5364145;26;20351;-76
2024/05/03 06:37:08;;;;;;;0.20;0.20;;;12.60;99.10;;;;;;5361647;26;20367;-76
2024/05/03 06:39:37;;;;;;;0.57;0.33;;;12.70;99.40;;;;;;5365273;26;20248;-77
2024/05/03 06:42:06;;;;;;;1.10;0.40;;;12.70;98.70;;;;;;5376229;26;20243;-76
2024/05/03 06:44:37;;;;;;;1.70;0.30;;;12.80;98.90;;;;;;5362522;26;20242;-77
2024/05/03 06:47:07;;;;;;;0.20;0.20;;;12.70;98.90;;;;;;5373902;26;20246;-78
2024/05/03 06:49:35;;;;;;;2.23;0.30;;;12.50;98.70;;;;;;5373444;26;20366;-78
2024/05/03 06:52:04;;;;;;;0.10;0.10;;;12.50;98.90;;;;;;5370719;26;20290;-77
2024/05/03 06:54:32;;;;;;;0.20;0.20;;;12.60;99.70;;;;;;5377339;26;20839;-77
2024/05/03 06:57:01;;;;;;;0.10;0.10;;;12.60;99.70;;;;;;5380831;26;20246;-78
2024/05/03 06:59:30;;;;;;;1.33;0.40;;;12.70;99.60;;;;;;5376604;26;20369;-78
2024/05/03 07:02:01;;;;;;;1.27;0.30;;;12.70;99.30;;;;;;5372131;26;20298;-78
2024/05/03 07:04:30;;;;;;;0.33;0.30;;;12.90;99.30;;;;;;5375732;26;20251;-78
2024/05/03 07:06:59;;;;;;;0.20;0.20;;;12.90;98.70;;;;;;5378368;26;20251;-77
2024/05/03 07:09:28;;;;;;;0.23;0.20;;;12.80;98.80;;;;;;5376186;26;20250;-77
2024/05/03 07:11:56;;;;;;;0.20;0.20;;;12.70;98.80;;;;;;5374668;26;20726;-77
2024/05/03 07:14:25;;;;;;;0.83;0.30;;;12.80;98.50;;;;;;5378136;26;20241;-77
2024/05/03 07:16:54;;;;;;;1.03;0.20;;;12.70;98.80;;;;;;5370000;26;20307;-77
2024/05/03 07:19:26;;;;;;;1.10;0.20;;;12.80;99.20;;;;;;5369934;26;20733;-77
2024/05/03 07:21:54;;;;;;;0.93;0.10;;;12.80;98.00;;;;;;5370687;26;20823;-78
2024/05/03 07:24:23;;;;;;;1.40;0.13;;;12.80;98.60;;;;;;5373133;26;20306;-76
2024/05/03 07:26:52;;;;;;;0.23;0.20;;;12.90;98.10;;;;;;5380167;26;20675;-76
2024/05/03 07:29:21;;;;;;;0.20;0.13;;;12.90;98.70;;;;;;5381468;26;20298;-76
2024/05/03 07:31:50;;;;;;;0.73;0.20;;;13.00;97.90;;;;;;5355387;26;20260;-77
2024/05/03 07:34:18;;;;;;;0.20;0.20;;;13.00;98.30;;;;;;5364414;26;20243;-77
2024/05/03 07:36:50;;;;;;;0.20;0.20;;;12.90;97.30;;;;;;5367756;26;20295;-77
2024/05/03 07:39:20;;;;;;;0.47;0.20;;;12.70;97.60;;;;;;5359568;26;20626;-77
2024/05/03 07:41:49;;;;;;;0.13;0.13;;;12.60;97.80;;;;;;5377866;26;20695;-76
2024/05/03 07:44:18;;;;;;;1.30;0.20;;;12.50;98.10;;;;;;5361870;26;20314;-76
2024/05/03 07:46:47;;;;;;;0.20;0.20;;;12.60;98.00;;;;;;5371253;26;20246;-76
2024/05/03 07:49:16;;;;;;;0.30;0.30;;;12.70;98.00;;;;;;5370370;26;20339;-78
2024/05/03 07:51:45;;;;;;;0.90;0.30;;;12.80;98.00;;;;;;5376385;26;20238;-79
2024/05/03 07:54:16;;;;;;;0.40;0.20;;;12.80;97.70;;;;;;5378853;26;20239;-77
2024/05/03 07:56:45;;;;;;;0.33;0.20;;;12.80;97.60;;;;;;5369003;26;20308;-77
2024/05/03 07:59:14;;;;;;;0.20;0.20;;;12.70;97.60;;;;;;5380622;26;20282;-77
2024/05/03 08:01:42;;;;;;;0.50;0.20;;;12.60;97.60;;;;;;5371085;26;20243;-78
2024/05/03 08:04:11;;;;;;;0.23;0.23;;;12.60;97.80;;;;;;5371957;26;20258;-79
2024/05/03 08:06:40;;;;;;;0.33;0.30;;;12.60;98.20;;;;;;5378251;26;20728;-78
2024/05/03 08:09:08;;;;;;;0.30;0.30;;;12.50;97.90;;;;;;5370411;26;20317;-78
2024/05/03 08:11:41;;;;;;;1.10;0.40;;;12.70;97.60;;;;;;5370207;26;20591;-78
2024/05/03 08:14:10;;;;;;;0.27;0.27;;;12.80;97.50;;;;;;5368468;26;20332;-79
2024/05/03 08:16:39;;;;;;;0.17;0.17;;;13.10;97.30;;;;;;5367825;26;20365;-78
2024/05/03 08:19:07;;;;;;;0.70;0.50;;;13.30;97.20;;;;;;5372805;26;20254;-77
2024/05/03 08:21:36;;;;;;;0.20;0.20;;;13.50;96.80;;;;;;5372637;26;20720;-77
2024/05/03 08:24:05;;;;;;;1.73;0.20;;;13.70;96.50;;;;;;5361171;26;20337;-80
2024/05/03 08:26:33;;;;;;;0.50;0.50;;;13.80;95.40;;;;;;5376274;26;20339;-78
2024/05/03 08:29:05;;;;;;;0.10;0.10;;;13.60;95.50;;;;;;5370508;26;20266;-77
2024/05/03 08:31:33;;;;;;;0.10;0.10;;;13.70;95.50;;;;;;5356448;26;20263;-76
2024/05/03 08:34:02;;;;;;;1.20;1.03;;;13.80;94.80;;;;;;5369875;26;20376;-79
2024/05/03 08:36:34;;;;;;;0.40;0.40;;;13.90;95.40;;;;;;5370202;26;20340;-78
2024/05/03 08:39:03;;;;;;;0.50;0.30;;;14.20;95.20;;;;;;5367966;26;20278;-78
2024/05/03 08:41:44;;;;;;;0.50;0.50;;;14.20;94.50;;;;;;5369831;26;20287;-78
2024/05/03 08:44:30;;;;;;;0.20;0.20;;;14.10;94.70;;;;;;5367438;26;20250;-78
2024/05/03 08:47:03;;;;;;;1.63;0.30;;;13.80;94.40;;;;;;5370512;26;20302;-78
2024/05/03 08:49:35;;;;;;;0.23;0.20;;;13.70;95.50;;;;;;5371878;26;20251;-78
2024/05/03 08:52:12;;;;;;;0.33;0.30;;;13.70;95.00;;;;;;5372040;26;20340;-79
2024/05/03 08:54:43;;;;;;;1.60;0.30;;;13.70;94.40;;;;;;5364006;26;20268;-78
2024/05/03 08:57:13;;;;;;;0.23;0.20;;;13.80;94.50;;;;;;5368851;26;20246;-78
2024/05/03 08:59:47;;;;;;;0.20;0.20;;;13.70;94.70;;;;;;5368358;26;20290;-79
2024/05/03 09:02:15;;;;;;;0.57;0.20;;;13.90;94.80;;;;;;5370819;26;20235;-75
2024/05/03 09:04:44;;;;;;;0.33;0.30;;;14.00;94.10;;;;;;5377362;26;20575;-77
2024/05/03 09:07:14;;;;;;;0.17;0.17;;;14.10;94.50;;;;;;5366057;26;20577;-76
2024/05/03 09:09:50;;;;;;;1.03;0.20;;;14.20;94.60;;;;;;5375558;26;20684;-77
2024/05/03 09:12:28;;;;;;;0.97;0.40;;;14.30;94.00;;;;;;5375916;26;20251;-76
2024/05/03 09:15:01;;;;;;;3.13;0.43;;;14.30;93.70;;;;;;5370142;26;20236;-77
2024/05/03 09:17:36;;;;;;;0.77;0.27;;;14.20;94.70;;;;;;5374931;26;20849;-78
2024/05/03 09:20:05;;;;;;;1.03;0.30;;;14.10;93.80;;;;;;5376485;26;20748;-78
2024/05/03 09:22:34;;;;;;;0.37;0.30;;;14.00;94.50;;;;;;5371771;26;20248;-78
2024/05/03 09:25:03;;;;;;;1.73;0.20;;;13.90;94.00;;;;;;5376266;26;20294;-78
2024/05/03 09:27:32;;;;;;;0.83;0.20;;;14.00;95.00;;;;;;5368998;26;20303;-76
2024/05/03 09:30:05;;;;;;;1.03;0.33;;;13.90;94.60;;;;;;5365164;26;20294;-76
2024/05/03 09:32:34;;;;;;;0.37;0.30;;;13.80;94.30;;;;;;5363563;26;20368;-78
2024/05/03 09:35:03;;;;;;;0.33;0.30;;;13.80;94.80;;;;;;5371510;26;20295;-77
2024/05/03 09:37:31;;;;;;;1.10;0.77;;;13.90;95.00;;;;;;5378048;26;20234;-77
2024/05/03 09:40:00;;;;;;;0.67;0.57;;;13.90;94.80;;;;;;5375291;26;20707;-77
2024/05/03 09:42:29;;;;;;;2.97;1.13;;;13.90;94.10;;;;;;5373629;26;20305;-77
2024/05/03 09:45:00;;;;;;;0.67;0.60;;;13.90;94.20;;;;;;5381141;26;20335;-76
2024/05/03 09:47:32;;;;;;;0.63;0.40;;;13.90;94.00;;;;;;5376001;26;20234;-76
2024/05/03 09:50:10;;;;;;;1.00;0.83;;;14.00;94.30;;;;;;5374860;26;20250;-76
2024/05/03 09:52:40;;;;;;;1.40;1.00;;;13.90;93.60;;;;;;5378391;26;20290;-75
2024/05/03 09:55:19;;;;;;;1.10;1.10;;;13.90;94.10;;;;;;5380395;26;20254;-75
2024/05/03 09:57:48;;;;;;;0.50;0.50;;;13.80;94.30;;;;;;5376001;26;20277;-76
2024/05/03 10:00:21;;;;;;;1.17;0.40;;;13.80;94.50;;;;;;5366912;26;20251;-76
2024/05/03 10:03:04;;;;;;;0.40;0.40;;;13.70;94.10;;;;;;5373581;26;20595;-75
2024/05/03 10:05:35;;;;;;;0.77;0.70;;;13.60;94.30;;;;;;5378085;26;20238;-76
2024/05/03 10:08:05;;;;;;;2.10;0.53;;;13.50;94.60;;;;;;5375523;26;20250;-76
2024/05/03 10:10:35;;;;;;;1.90;0.70;;;13.50;94.90;;;;;;5367421;26;20282;-75
2024/05/03 10:13:04;;;;;;;0.57;0.40;;;13.40;94.50;;;;;;5376076;26;20250;-75
2024/05/03 10:15:34;;;;;;;0.67;0.50;;;13.40;94.40;;;;;;5379494;26;20234;-75
2024/05/03 10:18:07;;;;;;;0.50;0.50;;;13.40;94.90;;;;;;5366717;26;20715;-76
2024/05/03 10:20:36;;;;;;;0.77;0.67;;;13.10;94.40;;;;;;5366321;26;20293;-75
2024/05/03 10:23:09;;;;;;;1.03;0.50;;;13.10;95.10;;;;;;5379408;26;20606;-75
2024/05/03 10:25:39;;;;;;;1.17;0.43;;;13.00;95.00;;;;;;5384398;26;20617;-75
2024/05/03 10:28:10;;;;;;;0.67;0.50;;;13.00;95.10;;;;;;5376665;26;20286;-75
2024/05/03 10:30:40;;;;;;;0.53;0.50;;;13.00;94.70;;;;;;5360894;26;20336;-75
2024/05/03 10:33:18;;;;;;;0.73;0.60;;;13.00;95.40;;;;;;5363136;26;20298;-74
2024/05/03 10:35:48;;;;;;;0.57;0.57;;;13.00;95.00;;;;;;5367493;26;20303;-75
2024/05/03 10:38:21;;;;;;;0.70;0.70;;;13.00;95.50;;;;;;5365329;26;20361;-74
2024/05/03 10:40:51;;;;;;;1.17;0.40;;;13.10;94.80;;;;;;5366118;26;20290;-75
2024/05/03 10:43:20;;;;;;;1.17;0.60;;;13.10;94.90;;;;;;5370792;26;20246;-76
2024/05/03 10:45:49;;;;;;;0.97;0.70;;;13.10;94.90;;;;;;5377666;26;20242;-73
2024/05/03 10:48:20;;;;;;;1.00;0.80;;;13.10;95.00;;;;;;5375953;26;20286;-74
2024/05/03 10:50:49;;;;;;;0.83;0.60;;;13.20;95.10;;;;;;5374666;26;20246;-76
2024/05/03 10:53:19;;;;;;;1.23;0.60;;;13.20;95.10;;;;;;5369698;26;20313;-75
2024/05/03 10:55:48;;;;;;;1.40;0.50;;;13.40;95.20;;;;;;5372961;26;20360;-76
2024/05/03 10:58:17;;;;;;;1.30;0.60;;;13.70;95.20;;;;;;5374207;26;20721;-76
2024/05/03 11:00:46;;;;;;;0.50;0.50;;;14.00;94.70;;;;;;5373167;26;20298;-74
2024/05/03 11:03:15;;;;;;;0.67;0.50;;;14.10;94.40;;;;;;5378911;26;20294;-76
2024/05/03 11:05:46;;;;;;;0.50;0.50;;;14.30;93.70;;;;;;5372428;26;20243;-76
2024/05/03 11:08:15;;;;;;;0.97;0.70;;;14.40;93.60;;;;;;5368899;26;20290;-77
2024/05/03 11:10:44;;;;;;;1.33;0.50;;;14.40;92.90;;;;;;5375076;26;20238;-75
2024/05/03 11:13:13;;;;;;;1.80;0.50;;;14.30;92.60;;;;;;5372437;26;20353;-75
2024/05/03 11:15:42;;;;;;;0.77;0.47;;;14.10;92.70;;;;;;5362638;26;20950;-75
2024/05/03 11:18:12;;;;;;;0.43;0.43;;;13.80;93.10;;;;;;5379469;26;20274;-74
2024/05/03 11:20:40;;;;;;;1.40;0.53;;;13.50;93.50;;;;;;5365541;26;20240;-75
2024/05/03 11:23:13;;;;;;;2.60;0.83;;;13.30;93.40;;;;;;5378724;26;20247;-75
2024/05/03 11:25:47;;;;;;;0.60;0.60;;;13.00;93.90;;;;;;5358334;26;20239;-75
2024/05/03 11:28:16;;;;;;;2.27;0.90;;;12.90;94.40;;;;;;5369437;26;20250;-75
2024/05/03 11:30:45;;;;;;;3.23;0.70;;;13.00;94.90;;;;;;5353231;26;20271;-76
2024/05/03 11:33:17;;;;;;;1.77;0.80;;;12.90;94.60;;;;;;5369927;26;20273;-76
2024/05/03 11:35:49;;;;;;;0.90;0.90;;;12.80;94.50;;;;;;5365975;26;20247;-75
2024/05/03 11:38:21;;;;;;;2.43;0.90;;;12.80;94.90;;;;;;5361087;26;20603;-75
2024/05/03 11:40:49;;;;;;;1.60;0.90;;;12.80;94.90;;;;;;5373994;26;20338;-75
2024/05/03 11:43:18;;;;;;;1.90;0.77;;;12.80;95.40;;;;;;5361391;26;20362;-75
2024/05/03 11:45:47;;;;;;;1.37;0.83;;;12.90;95.50;;;;;;5380084;26;21079;-74
2024/05/03 11:48:16;;;;;;;1.70;0.77;;;13.00;95.60;;;;;;5378084;26;20258;-75
2024/05/03 11:50:45;;;;;;;2.40;1.13;;;13.00;94.80;;;;;;5374497;26;20376;-74
2024/05/03 11:53:14;;;;;;;3.97;0.97;;;13.00;94.50;;;;;;5372658;26;21119;-76
2024/05/03 11:55:45;;;;;;;2.60;1.50;;;12.90;95.20;;;;;;5374355;26;20290;-76
2024/05/03 11:58:14;;;;;;;0.80;0.80;;;12.90;95.10;;;;;;5368466;26;20293;-77
2024/05/03 12:00:43;;;;;;;2.00;1.07;;;12.80;94.90;;;;;;5373520;26;20285;-75
2024/05/03 12:03:11;;;;;;;2.77;1.07;;;12.70;94.90;;;;;;5382372;26;20246;-75
2024/05/03 12:05:40;;;;;;;2.63;1.10;;;12.60;95.20;;;;;;5381177;26;20238;-75
2024/05/03 12:08:09;;;;;;;1.43;1.10;;;12.50;94.80;;;;;;5376521;26;20317;-77
2024/05/03 12:10:38;;;;;;;0.90;0.83;;;12.40;94.80;;;;;;5376903;26;20298;-76
2024/05/03 12:13:09;;;;;;;1.30;1.00;;;12.30;95.10;;;;;;5381211;26;20255;-75
2024/05/03 12:15:39;;;;;;;1.40;1.10;;;12.40;95.50;;;;;;5372176;26;20776;-75
2024/05/03 12:18:08;;;;;;;1.13;0.80;;;12.50;95.40;;;;;;5370012;26;20246;-75
2024/05/03 12:20:37;;;;;;;2.30;1.27;;;12.70;95.60;;;;;;5377021;26;20608;-75
2024/05/03 12:23:06;;;;;;;0.90;0.90;;;12.70;95.40;;;;;;5374344;26;20293;-75
2024/05/03 12:25:34;;;;;;;1.87;1.00;;;12.90;95.80;;;;;;5378852;26;20243;-76
2024/05/03 12:28:03;;;;;;;1.10;1.00;;;13.00;94.70;;;;;;5382408;26;20271;-76
2024/05/03 12:30:35;;;;;;;2.60;1.17;;;13.20;94.50;;;;;;5367313;26;20309;-77
2024/05/03 12:33:04;;;;;;;1.00;0.97;;;13.30;94.70;;;;;;5359615;26;20274;-75
2024/05/03 12:35:33;;;;;;;2.10;1.27;;;13.40;93.80;;;;;;5364855;26;20316;-76
2024/05/03 12:38:01;;;;;;;1.70;1.10;;;13.50;94.30;;;;;;5379337;26;20250;-76
2024/05/03 12:40:30;;;;;;;1.30;1.20;;;13.40;93.70;;;;;;5371064;26;20351;-76
2024/05/03 12:42:59;;;;;;;3.33;1.30;;;13.40;93.50;;;;;;5372238;26;20293;-76
2024/05/03 12:45:27;;;;;;;1.83;1.00;;;13.30;93.70;;;;;;5376119;26;20243;-75
2024/05/03 12:47:59;;;;;;;1.63;1.00;;;13.20;94.60;;;;;;5365666;26;20655;-76
2024/05/03 12:50:27;;;;;;;1.97;1.00;;;13.30;94.20;;;;;;5364933;26;20281;-75
2024/05/03 12:52:56;;;;;;;1.90;0.97;;;13.30;94.50;;;;;;5375227;26;20246;-75
2024/05/03 12:55:25;;;;;;;2.00;1.17;;;13.40;94.00;;;;;;5369291;26;20290;-76
2024/05/03 12:57:54;;;;;;;2.07;1.00;;;13.50;94.10;;;;;;5367798;26;20322;-76
2024/05/03 13:00:22;;;;;;;2.80;1.20;;;13.60;93.40;;;;;;5361225;26;20254;-76